Hyundai No.107 — A8CT4 — position and weather

sailwx.info

Track history (hours):
 
Tides and Currents Weather Stations Pressure Air Temp Water Temp Dewpoint Dewpoint Depression Visibility Wind Speed Wind Dir Waves Ship Positions

Hyundai No.107

Last reported at 2017-Sep-20 08:50 UTC. Time now 2017-Nov-19 12:35 UTC.
Position N 01°11' E 103°50'.
Warning: this ship's position is months out of date.

Length 184 m; draft 7.2 m.

Type: Cargo ship. MMSI: 636011980.

Date/timePositionNaut miles runAvg speedWind from/ knotsBaromVisibWave heightAir tempDewpointWater temp
2017-Sep-20 08:50N 01°11' E 103°50'9 4.6
2017-Sep-20 06:48N 01°17' E 103°57'0 0.0
2017-Sep-20 06:22N 01°17' E 103°57'0 0.0
2017-Sep-20 05:57N 01°17' E 103°57'33 8.3
2017-Sep-20 02:02N 01°15' E 103°24'014.7
2017-Sep-20 02:00N 01°15' E 103°25'714.7
2017-Sep-20 01:30N 01°13' E 103°32'815.3
2017-Sep-20 00:59N 01°11' E 103°39'510.8
2017-Sep-20 00:30N 01°08' E 103°44'510.2
2017-Sep-20 00:00N 01°10' E 103°48'5 9.7
2017-Sep-19 23:30N 01°12' E 103°53'5 9.2
2017-Sep-19 23:00N 01°15' E 103°57'2 4.3
2017-Sep-19 22:30N 01°17' E 103°57'0 0.1
2017-Sep-19 20:23N 01°17' E 103°57'0 0.2
2017-Sep-19 19:56N 01°17' E 103°57'0 0.2
2017-Sep-19 19:29N 01°17' E 103°57'0 0.0
2017-Sep-19 18:53N 01°17' E 103°57'0 0.0
2017-Sep-19 18:26N 01°17' E 103°57'0 0.0
2017-Sep-19 17:59N 01°17' E 103°57'0 0.0
2017-Sep-19 17:29N 01°17' E 103°57'0 0.0
2017-Sep-19 16:53N 01°17' E 103°57'0 0.2
2017-Sep-19 16:21N 01°17' E 103°57'0 0.2
2017-Sep-19 15:55N 01°17' E 103°57'0 0.1
2017-Sep-19 15:19N 01°17' E 103°57'0 0.1
2017-Sep-19 14:58N 01°17' E 103°57'0 0.0
2017-Sep-19 14:22N 01°17' E 103°57'0 0.0
2017-Sep-19 13:43N 01°17' E 103°57'0 0.0
2017-Sep-19 13:10N 01°17' E 103°57'0 0.0
2017-Sep-19 12:49N 01°17' E 103°57'0 0.0
2017-Sep-19 12:04N 01°17' E 103°57'0 0.0
2017-Sep-19 11:58N 01°17' E 103°57'0 0.0
2017-Sep-19 11:16N 01°17' E 103°57'0 0.0
2017-Sep-18 22:21N 01°17' E 103°57'0 0.0
2017-Sep-18 21:54N 01°17' E 103°57'0 0.0
2017-Sep-18 21:30N 01°17' E 103°57'0 0.0
2017-Sep-18 20:09N 01°17' E 103°57'0 0.0
2017-Sep-18 19:54N 01°17' E 103°57'0 0.0
2017-Sep-18 19:27N 01°17' E 103°57'0 0.0
2017-Sep-18 15:54N 01°17' E 103°57'0 0.0
2017-Sep-18 15:29N 01°17' E 103°57'0 0.0
2017-Sep-18 12:38N 01°17' E 103°57'0 0.0
2017-Sep-18 09:50N 01°17' E 103°57'0 0.0
2017-Sep-18 09:08N 01°17' E 103°57'0 0.0
2017-Sep-18 07:29N 01°17' E 103°57'0 0.0
2017-Sep-18 02:37N 01°17' E 103°57'0 0.0
2017-Sep-18 02:05N 01°17' E 103°57'0 0.0
2017-Sep-18 01:55N 01°17' E 103°57'0 0.0
2017-Sep-18 01:23N 01°17' E 103°57'0 0.0
2017-Sep-17 23:53N 01°17' E 103°57'0 0.0
2017-Sep-17 23:27N 01°17' E 103°57'0 0.0
2017-Sep-17 22:52N 01°17' E 103°57'0 0.0
2017-Sep-17 22:28N 01°17' E 103°57'0 0.0
2017-Sep-17 22:00N 01°17' E 103°57'0 0.0
2017-Sep-17 21:31N 01°17' E 103°57'0 0.0
2017-Sep-17 21:00N 01°17' E 103°57'0 0.0
2017-Sep-17 19:51N 01°17' E 103°57'0 0.0
2017-Sep-17 19:27N 01°17' E 103°57'0 0.0
2017-Sep-17 19:00N 01°17' E 103°57'0 0.1
2017-Sep-17 18:23N 01°17' E 103°57'1 3.8
2017-Sep-17 18:01N 01°17' E 103°58'4 7.3
2017-Sep-17 17:28N 01°17' E 104°02'4 5.6
2017-Sep-17 16:49N 01°19' E 104°05'1310.0
2017-Sep-17 15:28N 01°26' E 103°53'2 0.3
2017-Sep-17 06:26N 01°28' E 103°51'4 7.3
2017-Sep-17 05:57N 01°26' E 103°54'4 9.5
2017-Sep-17 05:29N 01°24' E 103°58'5 9.0
2017-Sep-17 04:54N 01°21' E 104°03'4 9.5
2017-Sep-17 04:27N 01°18' E 104°06'  
Track history (hours):
 
Tides and Currents Weather Stations Pressure Air Temp Water Temp Dewpoint Dewpoint Depression Visibility Wind Speed Wind Dir Waves Ship Positions

Hyundai No.107

Last reported at 2017-Sep-20 08:50 UTC. Time now 2017-Nov-19 12:35 UTC.
Position N 01°11' E 103°50'.
Warning: this ship's position is months out of date.

Length 184 m; draft 7.2 m.

Type: Cargo ship. MMSI: 636011980.

Date/timePositionNaut miles runAvg speedWind from/ knotsBaromVisibWave heightAir tempDewpointWater temp
2017-Sep-20 08:50N 01°11' E 103°50'9 4.6
2017-Sep-20 06:48N 01°17' E 103°57'0 0.0
2017-Sep-20 06:22N 01°17' E 103°57'0 0.0
2017-Sep-20 05:57N 01°17' E 103°57'33 8.3
2017-Sep-20 02:02N 01°15' E 103°24'014.7
2017-Sep-20 02:00N 01°15' E 103°25'714.7
2017-Sep-20 01:30N 01°13' E 103°32'815.3
2017-Sep-20 00:59N 01°11' E 103°39'510.8
2017-Sep-20 00:30N 01°08' E 103°44'510.2
2017-Sep-20 00:00N 01°10' E 103°48'5 9.7
2017-Sep-19 23:30N 01°12' E 103°53'5 9.2
2017-Sep-19 23:00N 01°15' E 103°57'2 4.3
2017-Sep-19 22:30N 01°17' E 103°57'0 0.1
2017-Sep-19 20:23N 01°17' E 103°57'0 0.2
2017-Sep-19 19:56N 01°17' E 103°57'0 0.2
2017-Sep-19 19:29N 01°17' E 103°57'0 0.0
2017-Sep-19 18:53N 01°17' E 103°57'0 0.0
2017-Sep-19 18:26N 01°17' E 103°57'0 0.0
2017-Sep-19 17:59N 01°17' E 103°57'0 0.0
2017-Sep-19 17:29N 01°17' E 103°57'0 0.0
2017-Sep-19 16:53N 01°17' E 103°57'0 0.2
2017-Sep-19 16:21N 01°17' E 103°57'0 0.2
2017-Sep-19 15:55N 01°17' E 103°57'0 0.1
2017-Sep-19 15:19N 01°17' E 103°57'0 0.1
2017-Sep-19 14:58N 01°17' E 103°57'0 0.0
2017-Sep-19 14:22N 01°17' E 103°57'0 0.0
2017-Sep-19 13:43N 01°17' E 103°57'0 0.0
2017-Sep-19 13:10N 01°17' E 103°57'0 0.0
2017-Sep-19 12:49N 01°17' E 103°57'0 0.0
2017-Sep-19 12:04N 01°17' E 103°57'0 0.0
2017-Sep-19 11:58N 01°17' E 103°57'0 0.0
2017-Sep-19 11:16N 01°17' E 103°57'0 0.0
2017-Sep-18 22:21N 01°17' E 103°57'0 0.0
2017-Sep-18 21:54N 01°17' E 103°57'0 0.0
2017-Sep-18 21:30N 01°17' E 103°57'0 0.0
2017-Sep-18 20:09N 01°17' E 103°57'0 0.0
2017-Sep-18 19:54N 01°17' E 103°57'0 0.0
2017-Sep-18 19:27N 01°17' E 103°57'0 0.0
2017-Sep-18 15:54N 01°17' E 103°57'0 0.0
2017-Sep-18 15:29N 01°17' E 103°57'0 0.0
2017-Sep-18 12:38N 01°17' E 103°57'0 0.0
2017-Sep-18 09:50N 01°17' E 103°57'0 0.0
2017-Sep-18 09:08N 01°17' E 103°57'0 0.0
2017-Sep-18 07:29N 01°17' E 103°57'0 0.0
2017-Sep-18 02:37N 01°17' E 103°57'0 0.0
2017-Sep-18 02:05N 01°17' E 103°57'0 0.0
2017-Sep-18 01:55N 01°17' E 103°57'0 0.0
2017-Sep-18 01:23N 01°17' E 103°57'0 0.0
2017-Sep-17 23:53N 01°17' E 103°57'0 0.0
2017-Sep-17 23:27N 01°17' E 103°57'0 0.0
2017-Sep-17 22:52N 01°17' E 103°57'0 0.0
2017-Sep-17 22:28N 01°17' E 103°57'0 0.0
2017-Sep-17 22:00N 01°17' E 103°57'0 0.0
2017-Sep-17 21:31N 01°17' E 103°57'0 0.0
2017-Sep-17 21:00N 01°17' E 103°57'0 0.0
2017-Sep-17 19:51N 01°17' E 103°57'0 0.0
2017-Sep-17 19:27N 01°17' E 103°57'0 0.0
2017-Sep-17 19:00N 01°17' E 103°57'0 0.1
2017-Sep-17 18:23N 01°17' E 103°57'1 3.8
2017-Sep-17 18:01N 01°17' E 103°58'4 7.3
2017-Sep-17 17:28N 01°17' E 104°02'4 5.6
2017-Sep-17 16:49N 01°19' E 104°05'1310.0
2017-Sep-17 15:28N 01°26' E 103°53'2 0.3
2017-Sep-17 06:26N 01°28' E 103°51'4 7.3
2017-Sep-17 05:57N 01°26' E 103°54'4 9.5
2017-Sep-17 05:29N 01°24' E 103°58'5 9.0
2017-Sep-17 04:54N 01°21' E 104°03'4 9.5
2017-Sep-17 04:27N 01°18' E 104°06'  

Dump ship's entire track history